Time;durP1;ratioP1;P1;durP2;ratioP2;P2;SDS_P1;SDS_P2;PMS_P1;PMS_P2;Temp;Humidity;BMP_temperature;BMP_pressure;BME280_temperature;BME280_humidity;BME280_pressure;Samples;Min_cycle;Max_cycle;Signal;HPM_P1;HPM_P2
2023/01/01 00:00:08;;;;;;;4.15;1.10;;;15.60;99.90;15.80;100184.00;;;;339741;28;89460;-86
2023/01/01 00:00:20;;;;;;;7.53;1.65;;;15.50;99.90;15.70;100196.00;;;;336319;28;83588;-87
2023/01/01 00:00:32;;;;;;;6.50;1.60;;;15.50;99.90;15.70;100186.00;;;;338757;28;90815;-87
2023/01/01 00:00:44;;;;;;;4.32;1.00;;;15.50;99.90;15.70;100179.00;;;;340231;28;82402;-87
2023/01/01 00:00:56;;;;;;;2.42;0.88;;;15.50;99.90;15.70;100191.00;;;;337446;28;89442;-87
2023/01/01 00:01:09;;;;;;;5.15;1.15;;;15.50;99.90;15.70;100195.00;;;;340319;28;83573;-87
2023/01/01 00:01:21;;;;;;;6.50;1.27;;;15.50;99.90;15.80;100194.00;;;;337325;28;89252;-87
2023/01/01 00:01:38;;;;;;;6.07;1.52;;;15.50;99.90;15.80;100178.00;;;;339098;28;82645;-87
2023/01/01 00:01:51;;;;;;;5.60;1.70;;;15.50;99.90;15.80;100193.00;;;;338396;28;91301;-86
2023/01/01 00:02:03;;;;;;;4.55;1.25;;;15.50;99.90;15.80;100184.00;;;;340375;28;83396;-86
2023/01/01 00:02:15;;;;;;;4.10;1.13;;;15.50;99.90;15.80;100181.00;;;;337157;28;91918;-87
2023/01/01 00:02:27;;;;;;;9.43;1.30;;;15.50;99.90;15.80;100210.00;;;;341672;28;83417;-86
2023/01/01 00:02:47;;;;;;;9.40;1.33;;;15.50;99.90;15.80;100198.00;;;;339975;28;89432;-86
2023/01/01 00:02:59;;;;;;;4.47;1.40;;;15.50;99.90;15.80;100202.00;;;;337782;28;83488;-87
2023/01/01 00:03:10;;;;;;;5.20;1.50;;;15.50;99.90;15.80;100193.00;;;;338682;28;89547;-86
2023/01/01 00:03:22;;;;;;;4.40;1.45;;;15.50;99.90;15.80;100186.00;;;;340366;28;83397;-87
2023/01/01 00:03:34;;;;;;;5.10;1.13;;;15.50;99.90;15.80;100196.00;;;;339740;28;89242;-87
2023/01/01 00:03:54;;;;;;;4.72;1.30;;;15.50;99.90;15.80;100186.00;;;;343021;28;82517;-86
2023/01/01 00:04:08;;;;;;;5.22;1.45;;;15.50;99.90;15.80;100198.00;;;;338529;28;90111;-86
2023/01/01 00:04:20;;;;;;;4.88;1.15;;;15.60;99.90;15.80;100181.00;;;;342675;28;85009;-86
2023/01/01 00:04:33;;;;;;;4.53;0.95;;;15.50;99.90;15.80;100190.00;;;;338440;28;90986;-86
2023/01/01 00:04:46;;;;;;;4.90;1.40;;;15.50;99.90;15.80;100199.00;;;;340421;28;84006;-86
2023/01/01 00:04:58;;;;;;;4.00;1.20;;;15.50;99.90;15.70;100197.00;;;;341239;28;90386;-87
2023/01/01 00:05:10;;;;;;;4.63;0.95;;;15.50;99.90;15.70;100202.00;;;;340444;28;83352;-87
2023/01/01 00:05:22;;;;;;;4.97;0.95;;;15.50;99.90;15.80;100222.00;;;;340064;28;89889;-87
2023/01/01 00:05:37;;;;;;;5.24;1.06;;;15.50;99.90;15.80;100192.00;;;;341699;28;83437;-87
2023/01/01 00:05:49;;;;;;;4.10;1.02;;;15.50;99.90;15.80;100186.00;;;;339992;28;89743;-87
2023/01/01 00:06:08;;;;;;;4.13;1.08;;;15.50;99.90;15.70;100204.00;;;;341536;28;83462;-88
2023/01/01 00:06:21;;;;;;;5.07;1.40;;;15.50;99.90;15.70;100199.00;;;;337326;28;89561;-87
2023/01/01 00:06:33;;;;;;;4.50;1.17;;;15.50;99.90;15.80;100196.00;;;;340441;28;83419;-88
2023/01/01 00:06:45;;;;;;;4.75;1.20;;;15.50;99.90;15.70;100189.00;;;;342640;28;91894;-88
2023/01/01 00:06:57;;;;;;;4.68;1.55;;;15.50;99.90;15.70;100203.00;;;;341651;28;85089;-86
2023/01/01 00:07:09;;;;;;;6.15;1.60;;;15.50;99.90;15.80;100221.00;;;;339969;28;90150;-86
2023/01/01 00:07:20;;;;;;;8.02;1.42;;;15.50;99.90;15.80;100198.00;;;;343052;28;84539;-87
2023/01/01 00:07:32;;;;;;;9.32;1.38;;;15.50;99.90;15.80;100196.00;;;;341184;28;89870;-87
2023/01/01 00:07:44;;;;;;;7.85;1.13;;;15.50;99.90;15.80;100178.00;;;;340334;28;83541;-87
2023/01/01 00:07:56;;;;;;;6.88;1.10;;;15.50;99.90;15.80;100200.00;;;;342288;28;90704;-88
2023/01/01 00:08:15;;;;;;;4.70;1.13;;;15.50;99.90;15.80;100200.00;;;;339936;28;85555;-88
2023/01/01 00:08:27;;;;;;;5.28;1.73;;;15.50;99.90;15.70;100185.00;;;;337384;28;89094;-87
2023/01/01 00:08:39;;;;;;;5.88;1.90;;;15.50;99.90;15.80;100210.00;;;;336444;28;83348;-87
2023/01/01 00:10:28;;;;;;;6.72;1.27;;;15.60;99.90;15.80;100201.00;;;;338844;28;83934;-89
2023/01/01 00:10:40;;;;;;;6.68;1.25;;;15.50;99.90;15.80;100202.00;;;;335880;28;89275;-88
2023/01/01 00:10:52;;;;;;;6.63;1.55;;;15.50;99.90;15.80;100201.00;;;;339115;28;83342;-89
2023/01/01 00:11:05;;;;;;;5.72;1.25;;;15.50;99.90;15.70;100193.00;;;;336135;28;88200;-90
2023/01/01 00:11:17;;;;;;;5.18;1.20;;;15.50;99.90;15.80;100195.00;;;;335065;29;83497;-89
2023/01/01 00:11:29;;;;;;;6.78;1.63;;;15.50;99.90;15.80;100198.00;;;;337430;28;89971;-89
2023/01/01 00:11:41;;;;;;;7.63;1.70;;;15.50;99.90;15.80;100201.00;;;;340126;28;83807;-89
2023/01/01 00:11:53;;;;;;;7.18;1.60;;;15.50;99.90;15.70;100198.00;;;;338473;28;89816;-89
2023/01/01 00:12:05;;;;;;;5.55;1.20;;;15.50;99.90;15.80;100206.00;;;;340464;28;82657;-89
2023/01/01 00:12:17;;;;;;;4.90;1.48;;;15.50;99.90;15.70;100189.00;;;;338727;28;90062;-89
2023/01/01 00:12:31;;;;;;;5.88;1.38;;;15.50;99.90;15.80;100203.00;;;;340483;28;83448;-88
2023/01/01 00:12:43;;;;;;;6.00;1.25;;;15.50;99.90;15.70;100190.00;;;;338705;28;89359;-89
2023/01/01 00:12:58;;;;;;;5.45;1.25;;;15.50;99.90;15.70;100204.00;;;;340410;28;83488;-89
2023/01/01 00:13:13;;;;;;;4.93;1.35;;;15.50;99.90;15.70;100197.00;;;;338492;28;91439;-89
2023/01/01 00:13:24;;;;;;;4.60;1.40;;;15.50;99.90;15.80;100210.00;;;;340063;28;84050;-88
2023/01/01 00:13:39;;;;;;;3.65;1.20;;;15.50;99.90;15.70;100193.00;;;;340034;28;89462;-89
2023/01/01 00:13:51;;;;;;;3.90;1.05;;;15.50;99.90;15.80;100195.00;;;;341714;28;82376;-89
2023/01/01 00:14:03;;;;;;;4.40;1.10;;;15.50;99.90;15.70;100205.00;;;;339921;28;89110;-88
2023/01/01 00:14:23;;;;;;;4.95;1.45;;;15.50;99.90;15.70;100201.00;;;;338922;28;83484;-89
2023/01/01 00:14:34;;;;;;;5.13;1.52;;;15.50;99.90;15.70;100204.00;;;;339971;28;90592;-89
2023/01/01 00:14:46;;;;;;;5.55;1.27;;;15.50;99.90;15.70;100196.00;;;;339043;28;83501;-89
2023/01/01 00:14:58;;;;;;;6.00;1.30;;;15.50;99.90;15.70;100208.00;;;;340128;28;89021;-89
2023/01/01 00:15:10;;;;;;;7.30;1.23;;;15.50;99.90;15.70;100202.00;;;;339074;28;83437;-89
2023/01/01 00:15:23;;;;;;;9.75;1.55;;;15.50;99.90;15.80;100224.00;;;;340091;28;88338;-89
2023/01/01 00:15:35;;;;;;;8.88;1.60;;;15.50;99.90;15.80;100223.00;;;;339068;28;83428;-89
2023/01/01 00:15:46;;;;;;;5.95;1.35;;;15.50;99.90;15.70;100200.00;;;;338777;28;89158;-89
2023/01/01 00:16:06;;;;;;;4.13;1.20;;;15.50;99.90;15.70;100200.00;;;;339089;28;85070;-91
2023/01/01 00:16:19;;;;;;;5.10;1.27;;;15.50;99.90;15.70;100207.00;;;;337288;28;90065;-88
2023/01/01 00:16:31;;;;;;;5.82;1.42;;;15.50;99.90;15.70;100211.00;;;;335104;29;84772;-88
2023/01/01 00:16:43;;;;;;;6.75;1.60;;;15.50;99.90;15.70;100222.00;;;;339723;28;91568;-88
2023/01/01 00:16:55;;;;;;;6.25;1.30;;;15.50;99.90;15.70;100216.00;;;;337725;28;83378;-88
2023/01/01 00:17:07;;;;;;;4.90;1.02;;;15.50;99.90;15.70;100223.00;;;;338715;28;88153;-88
2023/01/01 00:17:19;;;;;;;4.72;1.05;;;15.50;99.90;15.70;100218.00;;;;339889;28;83674;-88
2023/01/01 00:17:31;;;;;;;5.25;1.50;;;15.50;99.90;15.70;100206.00;;;;340416;28;91208;-88
2023/01/01 00:17:43;;;;;;;6.65;1.63;;;15.40;99.90;15.60;100206.00;;;;342980;28;83316;-88
2023/01/01 00:17:55;;;;;;;6.55;1.70;;;15.50;99.90;15.60;100203.00;;;;340328;28;92955;-88
2023/01/01 00:18:07;;;;;;;5.70;1.50;;;15.50;99.90;15.70;100203.00;;;;337845;28;82316;-88
2023/01/01 00:18:19;;;;;;;6.28;1.60;;;15.50;99.90;15.70;100213.00;;;;338741;28;87954;-88
2023/01/01 00:18:31;;;;;;;5.53;1.40;;;15.50;99.90;15.60;100192.00;;;;340967;28;83329;-88
2023/01/01 00:18:43;;;;;;;4.68;1.33;;;15.50;99.90;15.70;100207.00;;;;341367;28;90387;-90
2023/01/01 00:18:55;;;;;;;4.40;1.35;;;15.40;99.90;15.60;100197.00;;;;339637;28;82465;-90
2023/01/01 00:19:07;;;;;;;5.15;1.67;;;15.40;99.90;15.60;100204.00;;;;338676;28;88918;-90
2023/01/01 00:19:19;;;;;;;6.15;2.35;;;15.50;99.90;15.70;100211.00;;;;337664;28;82879;-91
2023/01/01 00:19:30;;;;;;;10.90;2.38;;;15.40;99.90;15.70;100205.00;;;;338791;28;88365;-91
2023/01/01 00:19:42;;;;;;;10.88;2.15;;;15.40;99.90;15.70;100207.00;;;;340369;28;83431;-91
2023/01/01 00:19:54;;;;;;;8.77;1.65;;;15.50;99.90;15.70;100220.00;;;;340226;28;89466;-91
2023/01/01 00:20:07;;;;;;;5.07;1.65;;;15.50;99.90;15.70;100206.00;;;;338993;28;83729;-91
2023/01/01 00:20:19;;;;;;;5.40;1.70;;;15.40;99.90;15.70;100217.00;;;;338768;28;88336;-91
2023/01/01 00:20:31;;;;;;;7.18;1.92;;;15.40;99.90;15.60;100221.00;;;;336228;28;83364;-91
2023/01/01 00:20:46;;;;;;;10.18;1.95;;;15.40;99.90;15.60;100216.00;;;;338552;28;91983;-90
2023/01/01 00:21:06;;;;;;;8.73;1.50;;;15.40;99.90;15.60;100201.00;;;;340417;28;83308;-91
2023/01/01 00:21:18;;;;;;;4.82;1.30;;;15.40;99.90;15.60;100194.00;;;;339967;28;92090;-90
2023/01/01 00:21:30;;;;;;;4.80;1.35;;;15.40;99.90;15.60;100204.00;;;;340489;28;83542;-91
2023/01/01 00:21:42;;;;;;;4.68;1.10;;;15.40;99.90;15.70;100218.00;;;;336061;28;88582;-90
2023/01/01 00:21:54;;;;;;;6.03;1.20;;;15.40;99.90;15.70;100198.00;;;;340492;28;83035;-91
2023/01/01 00:22:06;;;;;;;5.88;1.40;;;15.40;99.90;15.60;100206.00;;;;337166;28;91239;-91
2023/01/01 00:22:38;;;;;;;5.90;1.30;;;15.40;99.90;15.60;100213.00;;;;339090;28;83261;-91
2023/01/01 00:23:07;;;;;;;4.95;1.00;;;15.40;99.90;15.70;100216.00;;;;337275;28;91057;-91
2023/01/01 00:23:19;;;;;;;7.78;1.17;;;15.40;99.90;15.70;100206.00;;;;340541;28;82420;-92
2023/01/01 00:23:31;;;;;;;6.93;1.20;;;15.40;99.90;15.60;100207.00;;;;339899;28;90235;-91
2023/01/01 00:23:43;;;;;;;4.85;1.08;;;15.40;99.90;15.60;100203.00;;;;338870;28;83575;-92
2023/01/01 00:23:54;;;;;;;4.47;1.10;;;15.40;99.90;15.70;100203.00;;;;339146;28;91014;-91
2023/01/01 00:24:07;;;;;;;4.80;1.15;;;15.40;99.90;15.60;100208.00;;;;339999;28;83614;-91
2023/01/01 00:24:19;;;;;;;5.25;1.17;;;15.40;99.90;15.60;100212.00;;;;341502;28;88852;-90
2023/01/01 00:24:31;;;;;;;4.60;1.15;;;15.40;99.90;15.60;100208.00;;;;338733;28;83487;-91
2023/01/01 00:24:43;;;;;;;5.18;1.38;;;15.40;99.90;15.70;100216.00;;;;338668;28;88740;-91
2023/01/01 00:24:54;;;;;;;4.55;1.27;;;15.40;99.90;15.70;100220.00;;;;339085;28;83459;-91
2023/01/01 00:25:07;;;;;;;3.55;1.00;;;15.40;99.90;15.70;100203.00;;;;339647;28;90778;-91
2023/01/01 00:25:19;;;;;;;3.42;1.17;;;15.40;99.90;15.70;100204.00;;;;341559;28;83695;-91
2023/01/01 00:25:31;;;;;;;3.28;1.10;;;15.40;99.90;15.70;100210.00;;;;338696;28;90816;-91
2023/01/01 00:25:43;;;;;;;4.30;1.30;;;15.40;99.90;15.70;100192.00;;;;340366;28;83196;-92
2023/01/01 00:25:55;;;;;;;5.50;1.27;;;15.40;99.90;15.70;100209.00;;;;342874;28;91098;-92
2023/01/01 00:26:11;;;;;;;5.43;1.40;;;15.40;99.90;15.60;100202.00;;;;340299;28;83472;-91
2023/01/01 00:26:23;;;;;;;4.45;1.15;;;15.40;99.90;15.70;100195.00;;;;337521;28;89169;-91
2023/01/01 00:26:45;;;;;;;6.78;1.17;;;15.40;99.90;15.60;100199.00;;;;340243;28;83321;-91
2023/01/01 00:26:57;;;;;;;7.35;1.52;;;15.40;99.90;15.60;100212.00;;;;339977;28;92200;-92
2023/01/01 00:27:09;;;;;;;3.72;1.55;;;15.40;99.90;15.60;100204.00;;;;340460;28;83825;-92
2023/01/01 00:27:21;;;;;;;3.53;1.35;;;15.40;99.90;15.60;100190.00;;;;340113;28;91128;-91
2023/01/01 00:27:33;;;;;;;3.88;1.40;;;15.40;99.90;15.60;100199.00;;;;341747;28;85222;-91
2023/01/01 00:27:45;;;;;;;4.60;1.45;;;15.40;99.90;15.60;100199.00;;;;338549;28;90975;-92
2023/01/01 00:27:57;;;;;;;4.22;1.60;;;15.40;99.90;15.60;100207.00;;;;339043;28;83343;-92
2023/01/01 00:28:08;;;;;;;5.10;1.40;;;15.40;99.90;15.60;100208.00;;;;338618;28;90828;-92
2023/01/01 00:28:20;;;;;;;5.40;1.25;;;15.40;99.90;15.60;100219.00;;;;341716;28;84658;-91
2023/01/01 00:28:32;;;;;;;6.50;1.10;;;15.40;99.90;15.60;100194.00;;;;340116;28;91154;-91
2023/01/01 00:28:44;;;;;;;6.30;1.00;;;15.40;99.90;15.60;100198.00;;;;340371;28;84188;-91
2023/01/01 00:28:56;;;;;;;6.07;1.08;;;15.40;99.90;15.60;100207.00;;;;338715;28;91040;-90
2023/01/01 00:29:08;;;;;;;6.07;1.30;;;15.40;99.90;15.60;100207.00;;;;343128;28;84764;-91
2023/01/01 00:29:20;;;;;;;6.28;1.30;;;15.40;99.90;15.60;100200.00;;;;340037;28;92098;-91
2023/01/01 00:29:32;;;;;;;8.05;1.23;;;15.40;99.90;15.60;100195.00;;;;339046;28;83863;-92
2023/01/01 00:29:44;;;;;;;7.15;1.52;;;15.40;99.90;15.70;100189.00;;;;339986;28;92754;-92
2023/01/01 00:29:56;;;;;;;6.05;1.45;;;15.40;99.90;15.70;100200.00;;;;335115;29;84837;-91
2023/01/01 00:30:09;;;;;;;4.95;1.40;;;15.40;99.90;15.70;100192.00;;;;340157;28;88309;-91
2023/01/01 00:30:23;;;;;;;4.18;1.45;;;15.40;99.90;15.70;100187.00;;;;337692;28;83981;-91
2023/01/01 00:30:39;;;;;;;4.55;1.52;;;15.40;99.90;15.60;100205.00;;;;338657;28;92297;-91
2023/01/01 00:30:51;;;;;;;6.30;1.13;;;15.40;99.90;15.60;100179.00;;;;340348;28;83742;-90
2023/01/01 00:31:13;;;;;;;6.72;0.98;;;15.40;99.90;15.60;100201.00;;;;340006;28;90468;-91
2023/01/01 00:31:25;;;;;;;5.35;1.00;;;15.40;99.90;15.70;100200.00;;;;343068;28;83979;-91
2023/01/01 00:31:37;;;;;;;6.15;1.08;;;15.40;99.90;15.60;100226.00;;;;339901;28;90840;-91
2023/01/01 00:31:49;;;;;;;6.13;1.08;;;15.40;99.90;15.60;100205.00;;;;340545;28;83356;-91
2023/01/01 00:32:01;;;;;;;8.40;1.35;;;15.40;99.90;15.60;100196.00;;;;341300;28;93026;-91
2023/01/01 00:32:13;;;;;;;8.00;1.30;;;15.40;99.90;15.60;100208.00;;;;341513;28;83519;-90
2023/01/01 00:32:33;;;;;;;4.43;1.20;;;15.40;99.90;15.60;100204.00;;;;341424;28;90945;-90
2023/01/01 00:32:45;;;;;;;3.45;1.23;;;15.40;99.90;15.70;100199.00;;;;341655;28;85203;-91
2023/01/01 00:33:06;;;;;;;3.97;1.10;;;15.40;99.90;15.70;100202.00;;;;338657;28;91580;-91
2023/01/01 00:33:18;;;;;;;5.65;1.48;;;15.50;99.90;15.70;100192.00;;;;342726;28;83440;-91
2023/01/01 00:33:30;;;;;;;4.88;1.50;;;15.40;99.90;15.60;100179.00;;;;337427;28;91451;-90
2023/01/01 00:33:43;;;;;;;4.90;1.35;;;15.40;99.90;15.60;100188.00;;;;340248;28;85174;-90
2023/01/01 00:33:55;;;;;;;4.72;1.25;;;15.40;99.90;15.70;100193.00;;;;337330;28;90596;-90
2023/01/01 00:34:09;;;;;;;5.55;1.20;;;15.40;99.90;15.60;100192.00;;;;343103;28;84022;-89
2023/01/01 00:34:20;;;;;;;6.20;0.95;;;15.40;99.90;15.60;100182.00;;;;338565;28;92360;-90
2023/01/01 00:34:32;;;;;;;5.65;0.90;;;15.40;99.90;15.60;100199.00;;;;340149;28;83256;-89
2023/01/01 00:34:44;;;;;;;5.20;1.17;;;15.40;99.90;15.60;100197.00;;;;336170;28;89410;-90
2023/01/01 00:34:56;;;;;;;7.32;1.77;;;15.40;99.90;15.60;100197.00;;;;340377;28;84002;-90
2023/01/01 00:35:08;;;;;;;7.78;2.20;;;15.40;99.90;15.60;100207.00;;;;338629;28;91849;-90
2023/01/01 00:35:20;;;;;;;7.85;2.08;;;15.40;99.90;15.50;100201.00;;;;339035;28;83726;-90
2023/01/01 00:35:32;;;;;;;5.05;1.40;;;15.40;99.90;15.50;100216.00;;;;338757;28;90565;-90
2023/01/01 00:35:44;;;;;;;5.40;1.25;;;15.40;99.90;15.60;100180.00;;;;341590;28;85281;-89
2023/01/01 00:35:56;;;;;;;5.13;1.38;;;15.40;99.90;15.60;100209.00;;;;341416;28;90604;-91
2023/01/01 00:36:13;;;;;;;5.03;1.30;;;15.40;99.90;15.60;100196.00;;;;341764;28;84617;-90
2023/01/01 00:36:26;;;;;;;5.07;1.02;;;15.40;99.90;15.60;100200.00;;;;340011;28;92669;-90
2023/01/01 00:36:38;;;;;;;5.35;1.10;;;15.40;99.90;15.60;100196.00;;;;341712;28;83807;-89
2023/01/01 00:36:49;;;;;;;5.50;1.30;;;15.40;99.90;15.60;100204.00;;;;338476;28;92094;-90
2023/01/01 00:37:01;;;;;;;5.97;1.40;;;15.40;99.90;15.60;100179.00;;;;340161;28;83712;-89
2023/01/01 00:37:14;;;;;;;6.63;1.30;;;15.40;99.90;15.60;100197.00;;;;337433;28;92186;-89
2023/01/01 00:37:27;;;;;;;5.57;1.17;;;15.40;99.90;15.60;100194.00;;;;340394;28;83444;-89
2023/01/01 00:37:39;;;;;;;5.10;1.20;;;15.40;99.90;15.60;100194.00;;;;338586;28;92064;-90
2023/01/01 00:37:57;;;;;;;8.55;1.30;;;15.40;99.90;15.60;100192.00;;;;339450;28;85047;-91
2023/01/01 00:38:09;;;;;;;8.27;1.00;;;15.40;99.90;15.60;100203.00;;;;338492;28;91821;-90
2023/01/01 00:38:21;;;;;;;6.85;0.85;;;15.40;99.90;15.60;100195.00;;;;336350;28;84651;-90
2023/01/01 00:38:33;;;;;;;5.57;1.10;;;15.40;99.90;15.60;100200.00;;;;341351;28;92556;-89
2023/01/01 00:38:45;;;;;;;5.07;1.50;;;15.40;99.90;15.60;100199.00;;;;338942;28;83524;-90
2023/01/01 00:38:57;;;;;;;5.97;2.33;;;15.40;99.90;15.60;100203.00;;;;340021;28;91924;-90
2023/01/01 00:39:09;;;;;;;5.20;2.28;;;15.40;99.90;15.50;100204.00;;;;336436;28;84342;-90
2023/01/01 00:39:20;;;;;;;5.20;1.52;;;15.40;99.90;15.50;100218.00;;;;342786;28;92057;-89
2023/01/01 00:39:32;;;;;;;4.85;1.25;;;15.40;99.90;15.60;100205.00;;;;337784;28;85169;-89
2023/01/01 00:39:44;;;;;;;5.15;1.52;;;15.40;99.90;15.60;100197.00;;;;342667;28;90831;-89
2023/01/01 00:39:56;;;;;;;5.00;1.45;;;15.40;99.90;15.60;100209.00;;;;339091;28;83400;-90
2023/01/01 00:40:10;;;;;;;6.13;1.33;;;15.30;99.90;15.60;100208.00;;;;341338;28;91665;-89
2023/01/01 00:40:22;;;;;;;7.22;1.27;;;15.40;99.90;15.60;100204.00;;;;337558;28;85331;-90
2023/01/01 00:40:34;;;;;;;6.18;1.23;;;15.40;99.90;15.50;100208.00;;;;340091;28;91141;-89
2023/01/01 00:40:46;;;;;;;8.60;1.67;;;15.40;99.90;15.60;100207.00;;;;337697;28;84146;-89
2023/01/01 00:40:58;;;;;;;7.85;1.65;;;15.30;99.90;15.60;100215.00;;;;338742;28;89776;-89
2023/01/01 00:41:10;;;;;;;4.15;1.50;;;15.40;99.90;15.50;100197.00;;;;341539;28;83975;-89
2023/01/01 00:41:22;;;;;;;3.65;1.67;;;15.30;99.90;15.60;100197.00;;;;338762;28;89213;-89
2023/01/01 00:41:34;;;;;;;4.53;1.45;;;15.40;99.90;15.60;100196.00;;;;337451;28;83356;-89
2023/01/01 00:41:46;;;;;;;8.30;1.27;;;15.40;99.90;15.60;100207.00;;;;338577;28;89694;-89
2023/01/01 00:41:58;;;;;;;8.15;1.50;;;15.40;99.90;15.60;100199.00;;;;341569;28;83824;-89
2023/01/01 00:42:10;;;;;;;6.65;1.75;;;15.30;99.90;15.60;100203.00;;;;338776;28;90865;-90
2023/01/01 00:42:22;;;;;;;6.40;1.90;;;15.40;99.90;15.50;100204.00;;;;339012;28;83704;-90
2023/01/01 00:42:34;;;;;;;6.54;1.94;;;15.40;99.90;15.50;100203.00;;;;335998;28;93930;-89
2023/01/01 00:42:46;;;;;;;5.25;1.80;;;15.40;99.90;15.50;100203.00;;;;340460;28;83371;-89
2023/01/01 00:42:58;;;;;;;6.13;2.03;;;15.40;99.90;15.60;100205.00;;;;336098;28;89334;-86
2023/01/01 00:43:10;;;;;;;5.72;1.80;;;15.40;99.90;15.60;100206.00;;;;336433;28;83426;-87
2023/01/01 00:43:22;;;;;;;5.90;2.10;;;15.40;99.90;15.60;100209.00;;;;340079;28;88109;-88
2023/01/01 00:43:34;;;;;;;4.50;1.88;;;15.40;99.90;15.70;100215.00;;;;337648;28;84626;-88
2023/01/01 00:43:46;;;;;;;5.63;1.92;;;15.40;99.90;15.70;100214.00;;;;340235;28;90237;-88
2023/01/01 00:43:58;;;;;;;7.75;1.98;;;15.40;99.90;15.60;100207.00;;;;337694;28;83463;-88
2023/01/01 00:44:10;;;;;;;8.30;1.92;;;15.40;99.90;15.50;100210.00;;;;342754;28;89805;-87
2023/01/01 00:44:22;;;;;;;6.45;2.00;;;15.40;99.90;15.50;100207.00;;;;341678;28;83325;-88
2023/01/01 00:44:34;;;;;;;8.75;2.63;;;15.40;99.90;15.60;100217.00;;;;337345;28;90871;-87
2023/01/01 00:44:46;;;;;;;10.02;2.97;;;15.40;99.90;15.50;100205.00;;;;340422;28;83428;-90
2023/01/01 00:44:58;;;;;;;6.80;2.47;;;15.40;99.90;15.60;100216.00;;;;338686;28;88656;-88
2023/01/01 00:45:10;;;;;;;5.95;2.08;;;15.40;99.90;15.60;100221.00;;;;339007;28;83452;-88
2023/01/01 00:45:31;;;;;;;5.15;2.00;;;15.40;99.90;15.50;100210.00;;;;337283;28;92392;-88
2023/01/01 00:45:46;;;;;;;5.07;1.77;;;15.40;99.90;15.50;100213.00;;;;337539;28;83488;-88
2023/01/01 00:45:58;;;;;;;5.82;2.03;;;15.40;99.90;15.50;100202.00;;;;340075;28;87318;-88
2023/01/01 00:46:10;;;;;;;6.28;2.28;;;15.40;99.90;15.60;100215.00;;;;336449;28;83372;-88
2023/01/01 00:46:23;;;;;;;6.47;2.30;;;15.30;99.90;15.60;100212.00;;;;340988;28;91769;-87
2023/01/01 00:46:34;;;;;;;6.95;1.95;;;15.40;99.90;15.50;100213.00;;;;339015;28;82229;-88
2023/01/01 00:46:46;;;;;;;8.63;2.45;;;15.40;99.90;15.50;100215.00;;;;341166;28;92168;-89
2023/01/01 00:46:58;;;;;;;7.40;2.22;;;15.40;99.90;15.60;100218.00;;;;338902;28;83239;-88
2023/01/01 00:47:10;;;;;;;6.68;1.90;;;15.30;99.90;15.60;100212.00;;;;341420;28;89050;-87
2023/01/01 00:47:22;;;;;;;9.23;2.08;;;15.30;99.90;15.60;100205.00;;;;341692;28;83342;-87
2023/01/01 00:47:34;;;;;;;7.75;2.10;;;15.30;99.90;15.50;100216.00;;;;341408;28;88092;-87
2023/01/01 00:47:46;;;;;;;6.53;2.00;;;15.40;99.90;15.60;100221.00;;;;342994;28;83385;-87
2023/01/01 00:47:57;;;;;;;4.85;2.00;;;15.30;99.90;15.50;100228.00;;;;336122;28;89774;-87
2023/01/01 00:48:09;;;;;;;5.30;2.38;;;15.30;99.90;15.60;100218.00;;;;340326;28;83659;-88
2023/01/01 00:48:21;;;;;;;4.88;2.63;;;15.40;99.90;15.60;100218.00;;;;338720;28;87535;-88
2023/01/01 00:48:33;;;;;;;6.75;2.80;;;15.30;99.90;15.60;100209.00;;;;339917;28;82630;-88
2023/01/01 00:48:45;;;;;;;6.65;2.40;;;15.40;99.90;15.60;100214.00;;;;337042;28;92187;-88
2023/01/01 00:48:57;;;;;;;7.53;2.20;;;15.30;99.90;15.60;100220.00;;;;340390;28;83522;-88
2023/01/01 00:49:09;;;;;;;5.88;2.35;;;15.40;99.90;15.50;100210.00;;;;341376;28;87924;-87
2023/01/01 00:49:21;;;;;;;6.35;2.33;;;15.40;99.90;15.60;100213.00;;;;339070;28;83643;-87
2023/01/01 00:49:33;;;;;;;4.93;2.35;;;15.30;99.90;15.50;100200.00;;;;340006;28;89023;-87
2023/01/01 00:49:45;;;;;;;4.72;2.58;;;15.30;99.90;15.60;100217.00;;;;340339;28;83794;-87
2023/01/01 00:49:57;;;;;;;5.13;3.33;;;15.30;99.90;15.50;100201.00;;;;341270;28;89456;-88
2023/01/01 00:50:09;;;;;;;4.95;3.20;;;15.30;99.90;15.50;100209.00;;;;340319;28;83581;-87
2023/01/01 00:50:21;;;;;;;5.88;3.28;;;15.40;99.90;15.60;100209.00;;;;341167;28;90858;-87
2023/01/01 00:50:33;;;;;;;9.95;3.38;;;15.30;99.90;15.50;100208.00;;;;337577;28;83486;-88
2023/01/01 00:50:46;;;;;;;10.25;3.22;;;15.30;99.90;15.50;100235.00;;;;339931;28;90979;-88
2023/01/01 00:50:58;;;;;;;10.30;3.30;;;15.30;99.90;15.50;100209.00;;;;340042;28;83866;-87
2023/01/01 00:51:10;;;;;;;10.30;3.15;;;15.30;99.90;15.50;100203.00;;;;339973;28;89799;-92
2023/01/01 00:51:22;;;;;;;10.07;2.90;;;15.30;99.90;15.50;100206.00;;;;341660;28;83422;-90
2023/01/01 00:51:34;;;;;;;7.97;2.90;;;15.30;99.90;15.50;100201.00;;;;339847;28;89578;-92
2023/01/01 00:51:48;;;;;;;6.28;2.53;;;15.30;99.90;15.60;100209.00;;;;341773;28;82481;-89
2023/01/01 00:52:00;;;;;;;4.25;2.40;;;15.30;99.90;15.60;100210.00;;;;340006;28;89516;-88
2023/01/01 00:52:11;;;;;;;4.90;2.50;;;15.30;99.90;15.60;100211.00;;;;338990;28;83410;-90
2023/01/01 00:52:23;;;;;;;6.40;2.53;;;15.30;99.90;15.60;100213.00;;;;339830;28;92199;-91
2023/01/01 00:52:35;;;;;;;6.32;2.28;;;15.30;99.90;15.50;100212.00;;;;340301;28;83694;-91
2023/01/01 00:52:48;;;;;;;6.38;2.40;;;15.30;99.90;15.50;100207.00;;;;339996;28;89900;-93
2023/01/01 00:53:00;;;;;;;6.28;2.53;;;15.30;99.90;15.60;100221.00;;;;337694;28;83497;-93
2023/01/01 00:53:11;;;;;;;6.45;2.55;;;15.30;99.90;15.60;100216.00;;;;337147;28;91211;-91
2023/01/01 00:53:24;;;;;;;6.43;2.63;;;15.30;99.90;15.60;100205.00;;;;340172;28;85035;-91
2023/01/01 00:53:36;;;;;;;8.35;2.72;;;15.30;99.90;15.50;100206.00;;;;338794;28;90007;-95
2023/01/01 00:53:47;;;;;;;8.63;2.75;;;15.30;99.90;15.50;100210.00;;;;340509;28;82607;-94
2023/01/01 00:53:59;;;;;;;7.75;2.60;;;15.30;99.90;15.50;100204.00;;;;335962;28;91285;-92
2023/01/01 00:54:12;;;;;;;8.27;2.70;;;15.30;99.90;15.50;100205.00;;;;341777;28;83507;-91
2023/01/01 00:54:24;;;;;;;7.95;2.58;;;15.30;99.90;15.60;100211.00;;;;337462;28;88635;-95
2023/01/01 00:54:36;;;;;;;6.07;2.47;;;15.30;99.90;15.50;100205.00;;;;338877;28;82659;-93
2023/01/01 00:54:48;;;;;;;6.32;2.08;;;15.30;99.90;15.50;100205.00;;;;338691;28;90763;-92
2023/01/01 00:55:00;;;;;;;7.30;2.13;;;15.30;99.90;15.50;100209.00;;;;340436;28;83180;-93
2023/01/01 00:55:12;;;;;;;6.82;1.85;;;15.30;99.90;15.50;100206.00;;;;339917;28;90566;-91
2023/01/01 00:55:24;;;;;;;8.70;2.40;;;15.30;99.90;15.50;100201.00;;;;340459;28;84314;-96
2023/01/01 00:55:39;;;;;;;8.52;2.38;;;15.30;99.90;15.50;100193.00;;;;338986;28;88661;-95
2023/01/01 00:55:51;;;;;;;6.35;1.50;;;15.30;99.90;15.60;100206.00;;;;342105;28;82603;-96
2023/01/01 00:56:03;;;;;;;4.50;1.23;;;15.30;99.90;15.60;100195.00;;;;338883;28;86969;-96
2023/01/01 00:56:15;;;;;;;5.07;1.30;;;15.30;99.90;15.60;100203.00;;;;337904;28;82277;-92
2023/01/01 00:56:27;;;;;;;5.90;1.25;;;15.30;99.90;15.60;100191.00;;;;341394;28;88833;-91
2023/01/01 00:56:40;;;;;;;6.82;1.50;;;15.40;99.90;15.60;100213.00;;;;340511;28;82444;-93
2023/01/01 00:56:51;;;;;;;6.30;1.90;;;15.40;99.90;15.50;100204.00;;;;334717;29;90330;-89
2023/01/01 00:57:03;;;;;;;5.97;1.63;;;15.30;99.90;15.50;100211.00;;;;340034;28;83343;-88
2023/01/01 00:57:15;;;;;;;5.90;1.40;;;15.30;99.90;15.50;100200.00;;;;336092;28;88614;-90
2023/01/01 00:57:27;;;;;;;5.78;1.25;;;15.30;99.90;15.60;100214.00;;;;340425;28;83734;-87
2023/01/01 00:57:39;;;;;;;6.47;1.45;;;15.30;99.90;15.60;100205.00;;;;342690;28;89449;-87
2023/01/01 00:57:51;;;;;;;5.63;2.10;;;15.30;99.90;15.50;100206.00;;;;340950;28;83489;-87
2023/01/01 00:58:03;;;;;;;5.22;1.85;;;15.30;99.90;15.50;100203.00;;;;339960;28;88682;-87
2023/01/01 00:58:16;;;;;;;5.47;1.60;;;15.30;99.90;15.40;100208.00;;;;338745;28;82540;-88